sensor_id;sensor_type;location;lat;lon;timestamp;P1;durP1;ratioP1;P2;durP2;ratioP2
52868;SDS011;39100;53.480;6.158;2023-01-01T00:01:26;26.10;;;9.50;;
52868;SDS011;39100;53.480;6.158;2023-01-01T00:03:54;23.38;;;9.48;;
52868;SDS011;39100;53.480;6.158;2023-01-01T00:06:21;27.23;;;10.18;;
52868;SDS011;39100;53.480;6.158;2023-01-01T00:08:47;31.42;;;13.20;;
52868;SDS011;39100;53.480;6.158;2023-01-01T00:11:13;58.63;;;25.48;;
52868;SDS011;39100;53.480;6.158;2023-01-01T00:13:39;43.25;;;15.52;;
52868;SDS011;39100;53.480;6.158;2023-01-01T00:16:10;40.60;;;15.05;;
52868;SDS011;39100;53.480;6.158;2023-01-01T00:18:37;21.25;;;8.00;;
52868;SDS011;39100;53.480;6.158;2023-01-01T00:21:10;15.40;;;4.60;;
52868;SDS011;39100;53.480;6.158;2023-01-01T00:23:37;12.75;;;4.68;;
52868;SDS011;39100;53.480;6.158;2023-01-01T00:26:10;13.25;;;4.22;;
52868;SDS011;39100;53.480;6.158;2023-01-01T00:28:36;19.15;;;4.20;;
52868;SDS011;39100;53.480;6.158;2023-01-01T00:31:06;12.10;;;5.43;;
52868;SDS011;39100;53.480;6.158;2023-01-01T00:33:33;15.95;;;5.25;;
52868;SDS011;39100;53.480;6.158;2023-01-01T00:36:05;16.23;;;4.97;;
52868;SDS011;39100;53.480;6.158;2023-01-01T00:38:32;15.02;;;5.55;;
52868;SDS011;39100;53.480;6.158;2023-01-01T00:40:58;18.10;;;5.78;;
52868;SDS011;39100;53.480;6.158;2023-01-01T00:43:24;20.80;;;7.40;;
52868;SDS011;39100;53.480;6.158;2023-01-01T00:45:50;14.75;;;6.68;;
52868;SDS011;39100;53.480;6.158;2023-01-01T00:48:18;19.80;;;7.65;;
52868;SDS011;39100;53.480;6.158;2023-01-01T00:50:45;18.92;;;7.70;;
52868;SDS011;39100;53.480;6.158;2023-01-01T00:53:11;27.60;;;11.52;;
52868;SDS011;39100;53.480;6.158;2023-01-01T00:55:41;18.52;;;8.13;;
52868;SDS011;39100;53.480;6.158;2023-01-01T00:58:07;14.50;;;5.95;;
52868;SDS011;39100;53.480;6.158;2023-01-01T01:00:33;22.67;;;5.80;;
52868;SDS011;39100;53.480;6.158;2023-01-01T01:02:59;19.25;;;5.80;;
52868;SDS011;39100;53.480;6.158;2023-01-01T01:05:25;15.13;;;5.32;;
52868;SDS011;39100;53.480;6.158;2023-01-01T01:07:50;12.57;;;4.60;;
52868;SDS011;39100;53.480;6.158;2023-01-01T01:10:16;15.02;;;4.30;;
52868;SDS011;39100;53.480;6.158;2023-01-01T01:12:42;13.48;;;3.45;;
52868;SDS011;39100;53.480;6.158;2023-01-01T01:15:08;12.18;;;2.88;;
52868;SDS011;39100;53.480;6.158;2023-01-01T01:17:34;18.02;;;3.97;;
52868;SDS011;39100;53.480;6.158;2023-01-01T01:20:00;15.52;;;4.25;;
52868;SDS011;39100;53.480;6.158;2023-01-01T01:22:26;15.68;;;4.03;;
52868;SDS011;39100;53.480;6.158;2023-01-01T01:24:52;6.80;;;2.53;;
52868;SDS011;39100;53.480;6.158;2023-01-01T01:27:18;16.02;;;4.30;;
52868;SDS011;39100;53.480;6.158;2023-01-01T01:29:44;15.93;;;2.65;;
52868;SDS011;39100;53.480;6.158;2023-01-01T01:32:10;21.65;;;2.67;;
52868;SDS011;39100;53.480;6.158;2023-01-01T01:34:36;9.68;;;2.67;;
52868;SDS011;39100;53.480;6.158;2023-01-01T01:37:02;19.60;;;3.03;;
52868;SDS011;39100;53.480;6.158;2023-01-01T01:39:28;18.02;;;2.55;;
52868;SDS011;39100;53.480;6.158;2023-01-01T01:41:54;9.48;;;2.35;;
52868;SDS011;39100;53.480;6.158;2023-01-01T01:53:03;7.10;;;2.33;;
52868;SDS011;39100;53.480;6.158;2023-01-01T01:55:32;18.17;;;2.97;;
52868;SDS011;39100;53.480;6.158;2023-01-01T01:58:01;12.40;;;2.72;;
52868;SDS011;39100;53.480;6.158;2023-01-01T02:00:28;21.15;;;3.35;;
52868;SDS011;39100;53.480;6.158;2023-01-01T02:02:55;11.18;;;3.30;;
52868;SDS011;39100;53.480;6.158;2023-01-01T02:05:26;12.90;;;2.50;;
52868;SDS011;39100;53.480;6.158;2023-01-01T02:07:53;17.00;;;3.67;;
52868;SDS011;39100;53.480;6.158;2023-01-01T02:10:20;17.55;;;4.00;;
52868;SDS011;39100;53.480;6.158;2023-01-01T02:12:46;19.88;;;3.35;;
52868;SDS011;39100;53.480;6.158;2023-01-01T02:15:12;15.63;;;2.55;;
52868;SDS011;39100;53.480;6.158;2023-01-01T02:20:23;11.20;;;2.90;;
52868;SDS011;39100;53.480;6.158;2023-01-01T02:23:41;13.57;;;3.08;;
52868;SDS011;39100;53.480;6.158;2023-01-01T02:31:58;12.82;;;2.50;;
52868;SDS011;39100;53.480;6.158;2023-01-01T02:34:29;9.33;;;2.30;;
52868;SDS011;39100;53.480;6.158;2023-01-01T02:36:59;9.30;;;2.05;;
52868;SDS011;39100;53.480;6.158;2023-01-01T02:39:30;11.13;;;2.47;;
52868;SDS011;39100;53.480;6.158;2023-01-01T02:41:56;12.25;;;2.30;;
52868;SDS011;39100;53.480;6.158;2023-01-01T02:44:25;12.10;;;2.53;;
52868;SDS011;39100;53.480;6.158;2023-01-01T02:46:54;14.73;;;2.83;;
52868;SDS011;39100;53.480;6.158;2023-01-01T02:49:19;8.25;;;2.28;;
52868;SDS011;39100;53.480;6.158;2023-01-01T02:57:01;10.20;;;2.38;;
52868;SDS011;39100;53.480;6.158;2023-01-01T03:11:13;9.52;;;2.30;;
52868;SDS011;39100;53.480;6.158;2023-01-01T03:13:59;10.95;;;2.72;;
52868;SDS011;39100;53.480;6.158;2023-01-01T03:18:59;7.20;;;2.08;;
52868;SDS011;39100;53.480;6.158;2023-01-01T03:21:37;15.48;;;2.97;;
52868;SDS011;39100;53.480;6.158;2023-01-01T03:24:09;12.63;;;2.50;;
52868;SDS011;39100;53.480;6.158;2023-01-01T03:26:40;15.20;;;2.60;;
52868;SDS011;39100;53.480;6.158;2023-01-01T03:29:06;11.18;;;2.08;;
52868;SDS011;39100;53.480;6.158;2023-01-01T03:31:34;9.25;;;3.40;;
52868;SDS011;39100;53.480;6.158;2023-01-01T03:34:02;13.20;;;3.38;;
52868;SDS011;39100;53.480;6.158;2023-01-01T03:36:34;8.90;;;2.55;;
52868;SDS011;39100;53.480;6.158;2023-01-01T03:39:11;8.75;;;3.60;;
52868;SDS011;39100;53.480;6.158;2023-01-01T03:41:45;17.52;;;2.45;;
52868;SDS011;39100;53.480;6.158;2023-01-01T03:44:23;11.73;;;2.40;;
52868;SDS011;39100;53.480;6.158;2023-01-01T03:47:02;16.00;;;2.55;;
52868;SDS011;39100;53.480;6.158;2023-01-01T03:49:29;11.60;;;2.45;;
52868;SDS011;39100;53.480;6.158;2023-01-01T04:00:06;12.63;;;2.28;;
52868;SDS011;39100;53.480;6.158;2023-01-01T04:02:35;11.38;;;1.98;;
52868;SDS011;39100;53.480;6.158;2023-01-01T04:05:04;11.25;;;2.80;;
52868;SDS011;39100;53.480;6.158;2023-01-01T04:07:34;10.65;;;2.70;;
52868;SDS011;39100;53.480;6.158;2023-01-01T04:10:00;13.65;;;2.10;;
52868;SDS011;39100;53.480;6.158;2023-01-01T04:12:27;9.48;;;2.05;;
52868;SDS011;39100;53.480;6.158;2023-01-01T04:14:54;6.63;;;2.13;;
52868;SDS011;39100;53.480;6.158;2023-01-01T04:17:19;13.05;;;2.53;;
52868;SDS011;39100;53.480;6.158;2023-01-01T04:19:45;11.05;;;3.03;;
52868;SDS011;39100;53.480;6.158;2023-01-01T04:22:11;10.98;;;3.90;;
52868;SDS011;39100;53.480;6.158;2023-01-01T04:24:36;10.63;;;2.00;;
52868;SDS011;39100;53.480;6.158;2023-01-01T04:27:02;9.77;;;1.80;;
52868;SDS011;39100;53.480;6.158;2023-01-01T04:29:28;12.13;;;2.10;;
52868;SDS011;39100;53.480;6.158;2023-01-01T04:31:53;14.77;;;3.25;;
52868;SDS011;39100;53.480;6.158;2023-01-01T04:34:19;9.07;;;2.38;;
52868;SDS011;39100;53.480;6.158;2023-01-01T04:36:44;9.43;;;2.38;;
52868;SDS011;39100;53.480;6.158;2023-01-01T04:39:10;8.55;;;2.42;;
52868;SDS011;39100;53.480;6.158;2023-01-01T04:41:35;10.50;;;2.60;;
52868;SDS011;39100;53.480;6.158;2023-01-01T04:44:01;11.93;;;2.10;;
52868;SDS011;39100;53.480;6.158;2023-01-01T04:46:27;16.20;;;2.70;;
52868;SDS011;39100;53.480;6.158;2023-01-01T04:48:52;14.55;;;3.47;;
52868;SDS011;39100;53.480;6.158;2023-01-01T04:51:18;8.88;;;1.85;;
52868;SDS011;39100;53.480;6.158;2023-01-01T04:53:45;10.80;;;2.70;;
52868;SDS011;39100;53.480;6.158;2023-01-01T04:56:12;11.80;;;2.15;;
52868;SDS011;39100;53.480;6.158;2023-01-01T04:58:39;8.75;;;1.75;;
52868;SDS011;39100;53.480;6.158;2023-01-01T05:01:07;9.25;;;1.65;;
52868;SDS011;39100;53.480;6.158;2023-01-01T05:03:38;11.70;;;1.77;;
52868;SDS011;39100;53.480;6.158;2023-01-01T05:06:04;9.90;;;2.35;;
52868;SDS011;39100;53.480;6.158;2023-01-01T05:08:32;6.85;;;1.48;;
52868;SDS011;39100;53.480;6.158;2023-01-01T05:11:06;10.77;;;2.17;;
52868;SDS011;39100;53.480;6.158;2023-01-01T05:13:37;10.50;;;1.90;;
52868;SDS011;39100;53.480;6.158;2023-01-01T05:16:05;8.20;;;2.05;;
52868;SDS011;39100;53.480;6.158;2023-01-01T05:18:33;6.03;;;0.95;;
52868;SDS011;39100;53.480;6.158;2023-01-01T05:20:59;13.50;;;1.48;;
52868;SDS011;39100;53.480;6.158;2023-01-01T05:23:27;14.20;;;2.35;;
52868;SDS011;39100;53.480;6.158;2023-01-01T05:25:53;7.28;;;2.22;;
52868;SDS011;39100;53.480;6.158;2023-01-01T05:28:18;10.68;;;2.63;;
52868;SDS011;39100;53.480;6.158;2023-01-01T05:30:44;11.80;;;1.92;;
52868;SDS011;39100;53.480;6.158;2023-01-01T05:33:09;9.73;;;2.92;;
52868;SDS011;39100;53.480;6.158;2023-01-01T05:35:36;13.05;;;2.03;;
52868;SDS011;39100;53.480;6.158;2023-01-01T05:38:02;13.63;;;3.05;;
52868;SDS011;39100;53.480;6.158;2023-01-01T05:40:28;17.98;;;2.67;;
52868;SDS011;39100;53.480;6.158;2023-01-01T05:42:54;13.30;;;2.40;;
52868;SDS011;39100;53.480;6.158;2023-01-01T05:45:20;13.98;;;2.05;;
52868;SDS011;39100;53.480;6.158;2023-01-01T05:47:45;19.38;;;3.92;;
52868;SDS011;39100;53.480;6.158;2023-01-01T05:50:11;9.45;;;2.42;;
52868;SDS011;39100;53.480;6.158;2023-01-01T05:52:37;16.27;;;2.67;;
52868;SDS011;39100;53.480;6.158;2023-01-01T05:55:02;23.90;;;4.28;;
52868;SDS011;39100;53.480;6.158;2023-01-01T05:57:28;14.13;;;2.25;;
52868;SDS011;39100;53.480;6.158;2023-01-01T05:59:54;20.63;;;2.35;;
52868;SDS011;39100;53.480;6.158;2023-01-01T06:02:19;14.75;;;2.40;;
52868;SDS011;39100;53.480;6.158;2023-01-01T06:04:45;12.82;;;1.83;;
52868;SDS011;39100;53.480;6.158;2023-01-01T06:07:10;15.10;;;2.60;;
52868;SDS011;39100;53.480;6.158;2023-01-01T06:09:36;12.73;;;1.83;;
52868;SDS011;39100;53.480;6.158;2023-01-01T06:12:02;17.48;;;2.42;;
52868;SDS011;39100;53.480;6.158;2023-01-01T06:14:27;14.93;;;2.53;;
52868;SDS011;39100;53.480;6.158;2023-01-01T06:16:53;16.42;;;2.15;;
52868;SDS011;39100;53.480;6.158;2023-01-01T06:19:19;12.50;;;2.00;;
52868;SDS011;39100;53.480;6.158;2023-01-01T06:21:44;14.52;;;2.15;;
52868;SDS011;39100;53.480;6.158;2023-01-01T06:24:10;8.18;;;1.67;;
52868;SDS011;39100;53.480;6.158;2023-01-01T06:26:35;10.02;;;1.58;;
52868;SDS011;39100;53.480;6.158;2023-01-01T06:29:01;12.27;;;2.63;;
52868;SDS011;39100;53.480;6.158;2023-01-01T06:31:27;11.43;;;1.67;;
52868;SDS011;39100;53.480;6.158;2023-01-01T06:33:53;15.18;;;1.38;;
52868;SDS011;39100;53.480;6.158;2023-01-01T06:36:20;13.82;;;1.70;;
52868;SDS011;39100;53.480;6.158;2023-01-01T06:38:47;10.90;;;3.50;;
52868;SDS011;39100;53.480;6.158;2023-01-01T06:41:16;19.85;;;2.72;;
52868;SDS011;39100;53.480;6.158;2023-01-01T06:43:43;9.68;;;2.00;;
52868;SDS011;39100;53.480;6.158;2023-01-01T06:46:14;12.10;;;2.40;;
52868;SDS011;39100;53.480;6.158;2023-01-01T06:48:45;10.38;;;1.73;;
52868;SDS011;39100;53.480;6.158;2023-01-01T06:51:13;14.75;;;2.42;;
52868;SDS011;39100;53.480;6.158;2023-01-01T06:53:41;14.85;;;1.60;;
52868;SDS011;39100;53.480;6.158;2023-01-01T06:56:06;8.75;;;1.45;;
52868;SDS011;39100;53.480;6.158;2023-01-01T06:58:32;12.13;;;1.90;;
52868;SDS011;39100;53.480;6.158;2023-01-01T07:01:05;17.95;;;2.78;;
52868;SDS011;39100;53.480;6.158;2023-01-01T07:03:39;12.73;;;1.88;;
52868;SDS011;39100;53.480;6.158;2023-01-01T07:06:06;13.82;;;2.10;;
52868;SDS011;39100;53.480;6.158;2023-01-01T07:08:32;10.93;;;1.17;;
52868;SDS011;39100;53.480;6.158;2023-01-01T07:10:58;14.80;;;1.55;;
52868;SDS011;39100;53.480;6.158;2023-01-01T07:13:24;9.65;;;1.92;;
52868;SDS011;39100;53.480;6.158;2023-01-01T07:15:50;10.52;;;2.88;;
52868;SDS011;39100;53.480;6.158;2023-01-01T07:18:17;13.85;;;2.08;;
52868;SDS011;39100;53.480;6.158;2023-01-01T07:20:50;10.80;;;1.40;;
52868;SDS011;39100;53.480;6.158;2023-01-01T07:23:19;9.45;;;2.88;;
52868;SDS011;39100;53.480;6.158;2023-01-01T07:25:47;12.93;;;1.60;;
52868;SDS011;39100;53.480;6.158;2023-01-01T07:28:14;13.70;;;1.45;;
52868;SDS011;39100;53.480;6.158;2023-01-01T07:30:39;8.77;;;1.80;;
52868;SDS011;39100;53.480;6.158;2023-01-01T07:33:05;16.52;;;1.55;;
52868;SDS011;39100;53.480;6.158;2023-01-01T07:35:34;15.90;;;2.53;;
52868;SDS011;39100;53.480;6.158;2023-01-01T07:37:59;15.70;;;2.35;;
52868;SDS011;39100;53.480;6.158;2023-01-01T07:40:25;10.10;;;1.80;;
52868;SDS011;39100;53.480;6.158;2023-01-01T07:42:50;14.70;;;1.77;;
52868;SDS011;39100;53.480;6.158;2023-01-01T07:45:16;15.35;;;2.15;;
52868;SDS011;39100;53.480;6.158;2023-01-01T07:47:42;12.10;;;1.30;;
52868;SDS011;39100;53.480;6.158;2023-01-01T07:50:13;17.55;;;3.03;;
52868;SDS011;39100;53.480;6.158;2023-01-01T07:52:40;14.93;;;1.95;;
52868;SDS011;39100;53.480;6.158;2023-01-01T07:55:06;11.02;;;2.10;;
52868;SDS011;39100;53.480;6.158;2023-01-01T07:57:35;11.93;;;1.63;;
52868;SDS011;39100;53.480;6.158;2023-01-01T08:00:01;15.23;;;2.28;;
52868;SDS011;39100;53.480;6.158;2023-01-01T08:02:26;17.23;;;2.50;;
52868;SDS011;39100;53.480;6.158;2023-01-01T08:04:52;10.45;;;1.92;;
52868;SDS011;39100;53.480;6.158;2023-01-01T08:07:18;18.02;;;3.00;;
52868;SDS011;39100;53.480;6.158;2023-01-01T08:09:44;11.18;;;1.85;;
52868;SDS011;39100;53.480;6.158;2023-01-01T08:12:09;16.95;;;1.58;;
52868;SDS011;39100;53.480;6.158;2023-01-01T08:14:35;13.20;;;2.15;;
52868;SDS011;39100;53.480;6.158;2023-01-01T08:17:00;15.55;;;2.53;;
52868;SDS011;39100;53.480;6.158;2023-01-01T08:19:26;12.00;;;2.00;;
52868;SDS011;39100;53.480;6.158;2023-01-01T08:21:51;16.48;;;1.73;;
52868;SDS011;39100;53.480;6.158;2023-01-01T08:24:17;13.35;;;1.67;;
52868;SDS011;39100;53.480;6.158;2023-01-01T08:26:43;18.05;;;2.53;;
52868;SDS011;39100;53.480;6.158;2023-01-01T08:29:08;13.77;;;2.80;;
52868;SDS011;39100;53.480;6.158;2023-01-01T08:31:35;22.38;;;2.22;;
52868;SDS011;39100;53.480;6.158;2023-01-01T08:34:01;18.52;;;2.60;;
52868;SDS011;39100;53.480;6.158;2023-01-01T08:36:26;17.92;;;2.85;;
52868;SDS011;39100;53.480;6.158;2023-01-01T08:38:52;22.25;;;2.55;;
52868;SDS011;39100;53.480;6.158;2023-01-01T08:41:17;16.85;;;3.65;;
52868;SDS011;39100;53.480;6.158;2023-01-01T08:43:43;19.63;;;3.33;;
52868;SDS011;39100;53.480;6.158;2023-01-01T08:46:09;16.92;;;2.13;;
52868;SDS011;39100;53.480;6.158;2023-01-01T08:48:34;20.30;;;2.72;;
52868;SDS011;39100;53.480;6.158;2023-01-01T08:51:00;21.45;;;2.88;;
52868;SDS011;39100;53.480;6.158;2023-01-01T08:53:27;19.42;;;2.97;;
52868;SDS011;39100;53.480;6.158;2023-01-01T08:55:57;20.58;;;2.47;;
52868;SDS011;39100;53.480;6.158;2023-01-01T08:58:28;22.73;;;4.13;;
52868;SDS011;39100;53.480;6.158;2023-01-01T09:00:54;15.55;;;2.53;;
52868;SDS011;39100;53.480;6.158;2023-01-01T09:03:20;14.63;;;2.33;;
52868;SDS011;39100;53.480;6.158;2023-01-01T09:05:46;14.02;;;3.35;;
52868;SDS011;39100;53.480;6.158;2023-01-01T09:08:12;16.33;;;2.35;;
52868;SDS011;39100;53.480;6.158;2023-01-01T09:10:39;19.70;;;1.88;;
52868;SDS011;39100;53.480;6.158;2023-01-01T09:13:05;17.80;;;2.25;;
52868;SDS011;39100;53.480;6.158;2023-01-01T09:15:31;17.08;;;2.67;;
52868;SDS011;39100;53.480;6.158;2023-01-01T09:17:59;19.70;;;3.60;;
52868;SDS011;39100;53.480;6.158;2023-01-01T09:20:25;19.70;;;4.07;;
52868;SDS011;39100;53.480;6.158;2023-01-01T09:22:51;14.10;;;1.92;;
52868;SDS011;39100;53.480;6.158;2023-01-01T09:25:17;17.48;;;2.13;;
52868;SDS011;39100;53.480;6.158;2023-01-01T09:27:43;14.27;;;3.35;;
52868;SDS011;39100;53.480;6.158;2023-01-01T09:30:09;17.13;;;3.15;;
52868;SDS011;39100;53.480;6.158;2023-01-01T09:32:35;12.23;;;2.30;;
52868;SDS011;39100;53.480;6.158;2023-01-01T09:35:01;20.33;;;3.33;;
52868;SDS011;39100;53.480;6.158;2023-01-01T09:37:26;18.88;;;2.08;;
52868;SDS011;39100;53.480;6.158;2023-01-01T09:39:52;20.35;;;3.90;;
52868;SDS011;39100;53.480;6.158;2023-01-01T09:42:25;28.20;;;3.40;;
52868;SDS011;39100;53.480;6.158;2023-01-01T09:47:46;17.27;;;2.53;;
52868;SDS011;39100;53.480;6.158;2023-01-01T09:50:23;20.95;;;2.40;;
52868;SDS011;39100;53.480;6.158;2023-01-01T09:52:54;15.52;;;2.47;;
52868;SDS011;39100;53.480;6.158;2023-01-01T09:57:54;24.88;;;3.47;;
52868;SDS011;39100;53.480;6.158;2023-01-01T10:00:21;20.08;;;3.15;;
52868;SDS011;39100;53.480;6.158;2023-01-01T10:10:57;14.05;;;2.55;;
52868;SDS011;39100;53.480;6.158;2023-01-01T10:13:38;16.30;;;2.15;;
52868;SDS011;39100;53.480;6.158;2023-01-01T10:16:18;18.60;;;2.75;;
52868;SDS011;39100;53.480;6.158;2023-01-01T10:19:15;17.83;;;3.25;;
52868;SDS011;39100;53.480;6.158;2023-01-01T10:21:50;19.08;;;2.03;;
52868;SDS011;39100;53.480;6.158;2023-01-01T10:24:30;21.58;;;3.08;;
52868;SDS011;39100;53.480;6.158;2023-01-01T10:27:12;11.73;;;2.65;;
52868;SDS011;39100;53.480;6.158;2023-01-01T10:29:50;13.23;;;2.47;;
52868;SDS011;39100;53.480;6.158;2023-01-01T10:32:33;18.13;;;3.13;;
52868;SDS011;39100;53.480;6.158;2023-01-01T10:35:02;12.23;;;2.58;;
52868;SDS011;39100;53.480;6.158;2023-01-01T10:37:36;10.77;;;3.03;;
52868;SDS011;39100;53.480;6.158;2023-01-01T10:40:08;13.25;;;2.10;;
52868;SDS011;39100;53.480;6.158;2023-01-01T10:42:39;11.68;;;1.55;;
52868;SDS011;39100;53.480;6.158;2023-01-01T10:45:05;17.38;;;3.05;;
52868;SDS011;39100;53.480;6.158;2023-01-01T10:47:36;13.13;;;2.07;;
52868;SDS011;39100;53.480;6.158;2023-01-01T10:50:05;15.23;;;2.92;;
52868;SDS011;39100;53.480;6.158;2023-01-01T10:52:34;13.52;;;2.00;;
52868;SDS011;39100;53.480;6.158;2023-01-01T10:55:03;12.57;;;2.47;;
52868;SDS011;39100;53.480;6.158;2023-01-01T10:57:30;14.60;;;1.80;;
52868;SDS011;39100;53.480;6.158;2023-01-01T11:02:34;20.33;;;2.92;;
52868;SDS011;39100;53.480;6.158;2023-01-01T11:05:15;11.07;;;1.70;;
52868;SDS011;39100;53.480;6.158;2023-01-01T11:07:42;12.15;;;2.42;;
52868;SDS011;39100;53.480;6.158;2023-01-01T11:10:19;7.53;;;1.73;;
52868;SDS011;39100;53.480;6.158;2023-01-01T11:12:47;9.85;;;1.70;;
52868;SDS011;39100;53.480;6.158;2023-01-01T11:15:22;7.88;;;1.40;;
52868;SDS011;39100;53.480;6.158;2023-01-01T11:18:09;15.73;;;2.40;;
52868;SDS011;39100;53.480;6.158;2023-01-01T11:20:38;18.02;;;2.08;;
52868;SDS011;39100;53.480;6.158;2023-01-01T11:23:17;12.70;;;1.90;;
52868;SDS011;39100;53.480;6.158;2023-01-01T11:28:29;6.60;;;1.40;;
52868;SDS011;39100;53.480;6.158;2023-01-01T11:30:59;10.85;;;1.40;;
52868;SDS011;39100;53.480;6.158;2023-01-01T11:33:32;10.70;;;2.40;;
52868;SDS011;39100;53.480;6.158;2023-01-01T11:36:00;11.70;;;2.00;;
52868;SDS011;39100;53.480;6.158;2023-01-01T11:38:27;8.45;;;1.35;;
52868;SDS011;39100;53.480;6.158;2023-01-01T11:40:54;6.88;;;1.20;;
52868;SDS011;39100;53.480;6.158;2023-01-01T11:43:25;10.85;;;1.67;;
52868;SDS011;39100;53.480;6.158;2023-01-01T11:45:53;10.35;;;1.88;;
52868;SDS011;39100;53.480;6.158;2023-01-01T11:48:25;10.45;;;1.80;;
52868;SDS011;39100;53.480;6.158;2023-01-01T11:50:57;7.32;;;1.30;;
52868;SDS011;39100;53.480;6.158;2023-01-01T11:53:27;8.50;;;1.35;;
52868;SDS011;39100;53.480;6.158;2023-01-01T11:56:00;7.82;;;1.45;;
52868;SDS011;39100;53.480;6.158;2023-01-01T11:58:50;12.95;;;1.58;;
52868;SDS011;39100;53.480;6.158;2023-01-01T12:01:31;7.00;;;1.08;;
52868;SDS011;39100;53.480;6.158;2023-01-01T12:07:03;12.77;;;2.17;;
52868;SDS011;39100;53.480;6.158;2023-01-01T12:09:43;10.60;;;1.58;;
52868;SDS011;39100;53.480;6.158;2023-01-01T12:14:56;9.23;;;1.92;;
52868;SDS011;39100;53.480;6.158;2023-01-01T12:23:49;7.50;;;1.38;;
52868;SDS011;39100;53.480;6.158;2023-01-01T12:42:59;9.23;;;1.30;;
52868;SDS011;39100;53.480;6.158;2023-01-01T12:51:09;12.05;;;1.70;;
52868;SDS011;39100;53.480;6.158;2023-01-01T12:56:42;11.18;;;1.60;;
52868;SDS011;39100;53.480;6.158;2023-01-01T12:59:13;13.48;;;2.50;;
52868;SDS011;39100;53.480;6.158;2023-01-01T13:01:43;9.90;;;1.35;;
52868;SDS011;39100;53.480;6.158;2023-01-01T13:04:12;5.10;;;1.20;;
52868;SDS011;39100;53.480;6.158;2023-01-01T13:06:52;11.43;;;1.55;;
52868;SDS011;39100;53.480;6.158;2023-01-01T13:09:51;9.93;;;2.22;;
52868;SDS011;39100;53.480;6.158;2023-01-01T13:12:17;15.25;;;1.67;;
52868;SDS011;39100;53.480;6.158;2023-01-01T13:14:46;9.93;;;1.10;;
52868;SDS011;39100;53.480;6.158;2023-01-01T13:19:47;11.85;;;1.50;;
52868;SDS011;39100;53.480;6.158;2023-01-01T13:22:33;8.15;;;1.00;;
52868;SDS011;39100;53.480;6.158;2023-01-01T13:49:05;7.95;;;1.42;;
52868;SDS011;39100;53.480;6.158;2023-01-01T13:51:55;7.30;;;1.17;;
52868;SDS011;39100;53.480;6.158;2023-01-01T14:00:20;13.43;;;1.80;;
52868;SDS011;39100;53.480;6.158;2023-01-01T14:02:51;12.98;;;1.35;;
52868;SDS011;39100;53.480;6.158;2023-01-01T14:10:53;16.65;;;1.50;;
52868;SDS011;39100;53.480;6.158;2023-01-01T14:13:19;12.13;;;1.45;;
52868;SDS011;39100;53.480;6.158;2023-01-01T14:15:59;7.75;;;1.38;;
52868;SDS011;39100;53.480;6.158;2023-01-01T14:18:48;7.35;;;1.38;;
52868;SDS011;39100;53.480;6.158;2023-01-01T14:21:18;11.45;;;1.45;;
52868;SDS011;39100;53.480;6.158;2023-01-01T14:24:05;7.15;;;1.42;;
52868;SDS011;39100;53.480;6.158;2023-01-01T14:26:32;8.27;;;1.95;;
52868;SDS011;39100;53.480;6.158;2023-01-01T14:29:04;6.10;;;0.93;;
52868;SDS011;39100;53.480;6.158;2023-01-01T14:31:40;12.05;;;1.65;;
52868;SDS011;39100;53.480;6.158;2023-01-01T14:34:14;5.75;;;1.13;;
52868;SDS011;39100;53.480;6.158;2023-01-01T14:36:58;12.90;;;1.50;;
52868;SDS011;39100;53.480;6.158;2023-01-01T14:39:26;10.32;;;1.75;;
52868;SDS011;39100;53.480;6.158;2023-01-01T14:42:12;7.30;;;1.42;;
52868;SDS011;39100;53.480;6.158;2023-01-01T14:44:42;4.82;;;0.85;;
52868;SDS011;39100;53.480;6.158;2023-01-01T14:47:54;7.75;;;2.33;;
52868;SDS011;39100;53.480;6.158;2023-01-01T14:50:01;13.18;;;1.42;;
52868;SDS011;39100;53.480;6.158;2023-01-01T14:52:27;8.77;;;1.10;;
52868;SDS011;39100;53.480;6.158;2023-01-01T14:54:57;10.00;;;1.13;;
52868;SDS011;39100;53.480;6.158;2023-01-01T14:57:24;8.45;;;1.45;;
52868;SDS011;39100;53.480;6.158;2023-01-01T14:59:54;9.13;;;1.17;;
52868;SDS011;39100;53.480;6.158;2023-01-01T15:04:52;11.02;;;1.35;;
52868;SDS011;39100;53.480;6.158;2023-01-01T15:09:44;12.55;;;1.65;;
52868;SDS011;39100;53.480;6.158;2023-01-01T15:12:11;9.18;;;1.15;;
52868;SDS011;39100;53.480;6.158;2023-01-01T15:14:39;10.88;;;1.58;;
52868;SDS011;39100;53.480;6.158;2023-01-01T15:17:27;6.28;;;1.20;;
52868;SDS011;39100;53.480;6.158;2023-01-01T15:22:42;7.43;;;1.13;;
52868;SDS011;39100;53.480;6.158;2023-01-01T15:25:14;6.30;;;1.17;;
52868;SDS011;39100;53.480;6.158;2023-01-01T15:27:42;4.25;;;1.42;;
52868;SDS011;39100;53.480;6.158;2023-01-01T15:30:20;7.47;;;1.07;;
52868;SDS011;39100;53.480;6.158;2023-01-01T15:32:46;6.00;;;0.70;;
52868;SDS011;39100;53.480;6.158;2023-01-01T15:35:19;7.05;;;1.40;;
52868;SDS011;39100;53.480;6.158;2023-01-01T15:37:51;8.48;;;1.20;;
52868;SDS011;39100;53.480;6.158;2023-01-01T15:45:27;7.90;;;1.13;;
52868;SDS011;39100;53.480;6.158;2023-01-01T15:50:31;7.70;;;1.02;;
52868;SDS011;39100;53.480;6.158;2023-01-01T15:53:09;6.20;;;0.85;;
52868;SDS011;39100;53.480;6.158;2023-01-01T15:55:43;4.63;;;1.42;;
52868;SDS011;39100;53.480;6.158;2023-01-01T15:58:16;5.78;;;0.98;;
52868;SDS011;39100;53.480;6.158;2023-01-01T16:03:23;5.95;;;1.20;;
52868;SDS011;39100;53.480;6.158;2023-01-01T16:05:52;6.47;;;1.35;;
52868;SDS011;39100;53.480;6.158;2023-01-01T16:08:20;7.38;;;2.03;;
52868;SDS011;39100;53.480;6.158;2023-01-01T16:10:46;7.30;;;1.10;;
52868;SDS011;39100;53.480;6.158;2023-01-01T16:13:13;8.75;;;1.50;;
52868;SDS011;39100;53.480;6.158;2023-01-01T16:15:56;6.72;;;1.40;;
52868;SDS011;39100;53.480;6.158;2023-01-01T16:18:27;8.07;;;1.88;;
52868;SDS011;39100;53.480;6.158;2023-01-01T16:20:55;10.48;;;2.03;;
52868;SDS011;39100;53.480;6.158;2023-01-01T16:23:20;8.98;;;2.25;;
52868;SDS011;39100;53.480;6.158;2023-01-01T16:25:46;5.55;;;1.63;;
52868;SDS011;39100;53.480;6.158;2023-01-01T16:28:12;13.15;;;2.08;;
52868;SDS011;39100;53.480;6.158;2023-01-01T16:30:41;5.40;;;2.10;;
52868;SDS011;39100;53.480;6.158;2023-01-01T16:33:11;10.88;;;2.85;;
52868;SDS011;39100;53.480;6.158;2023-01-01T16:35:39;14.40;;;3.25;;
52868;SDS011;39100;53.480;6.158;2023-01-01T16:38:05;8.25;;;2.13;;
52868;SDS011;39100;53.480;6.158;2023-01-01T16:40:31;9.02;;;1.58;;
52868;SDS011;39100;53.480;6.158;2023-01-01T16:42:56;11.15;;;1.92;;
52868;SDS011;39100;53.480;6.158;2023-01-01T16:45:22;5.05;;;1.30;;
52868;SDS011;39100;53.480;6.158;2023-01-01T16:47:50;8.77;;;2.83;;
52868;SDS011;39100;53.480;6.158;2023-01-01T16:50:16;4.85;;;1.08;;
52868;SDS011;39100;53.480;6.158;2023-01-01T16:52:41;6.18;;;0.93;;
52868;SDS011;39100;53.480;6.158;2023-01-01T16:55:09;9.20;;;1.98;;
52868;SDS011;39100;53.480;6.158;2023-01-01T16:57:35;8.07;;;1.73;;
52868;SDS011;39100;53.480;6.158;2023-01-01T17:00:01;2.85;;;1.02;;
52868;SDS011;39100;53.480;6.158;2023-01-01T17:02:27;6.22;;;1.77;;
52868;SDS011;39100;53.480;6.158;2023-01-01T17:04:54;8.00;;;1.85;;
52868;SDS011;39100;53.480;6.158;2023-01-01T17:07:19;4.43;;;1.40;;
52868;SDS011;39100;53.480;6.158;2023-01-01T17:09:45;9.23;;;1.38;;
52868;SDS011;39100;53.480;6.158;2023-01-01T17:12:11;7.28;;;1.20;;
52868;SDS011;39100;53.480;6.158;2023-01-01T17:14:36;9.00;;;2.20;;
52868;SDS011;39100;53.480;6.158;2023-01-01T17:17:02;8.27;;;1.70;;
52868;SDS011;39100;53.480;6.158;2023-01-01T17:19:27;9.90;;;1.70;;
52868;SDS011;39100;53.480;6.158;2023-01-01T17:21:53;10.68;;;1.92;;
52868;SDS011;39100;53.480;6.158;2023-01-01T17:24:19;10.50;;;1.40;;
52868;SDS011;39100;53.480;6.158;2023-01-01T17:26:45;6.00;;;1.40;;